sensor_id;sensor_type;location;lat;lon;timestamp;pressure;altitude;pressure_sealevel;temperature;humidity
42847;BME280;28495;49.916;14.536;2023-02-14T00:01:45;98789.25;;;2.72;67.78
42847;BME280;28495;49.916;14.536;2023-02-14T00:07:06;98778.88;;;2.74;67.77
42847;BME280;28495;49.916;14.536;2023-02-14T00:12:27;98775.84;;;2.91;67.81
42847;BME280;28495;49.916;14.536;2023-02-14T00:17:52;98777.50;;;2.94;68.16
42847;BME280;28495;49.916;14.536;2023-02-14T00:23:19;98777.44;;;2.95;68.33
42847;BME280;28495;49.916;14.536;2023-02-14T00:28:40;98784.19;;;3.01;67.97
42847;BME280;28495;49.916;14.536;2023-02-14T00:34:00;98782.66;;;2.94;68.56
42847;BME280;28495;49.916;14.536;2023-02-14T00:39:21;98785.81;;;3.03;68.45
42847;BME280;28495;49.916;14.536;2023-02-14T00:44:42;98782.28;;;3.08;68.80
42847;BME280;28495;49.916;14.536;2023-02-14T00:50:04;98788.19;;;3.11;68.92
42847;BME280;28495;49.916;14.536;2023-02-14T00:55:24;98787.38;;;3.09;68.65
42847;BME280;28495;49.916;14.536;2023-02-14T01:00:45;98782.06;;;3.15;68.62
42847;BME280;28495;49.916;14.536;2023-02-14T01:06:06;98779.44;;;3.17;68.75
42847;BME280;28495;49.916;14.536;2023-02-14T01:11:27;98773.47;;;3.15;68.76
42847;BME280;28495;49.916;14.536;2023-02-14T01:16:50;98773.53;;;3.13;69.05
42847;BME280;28495;49.916;14.536;2023-02-14T01:22:10;98775.03;;;3.20;68.64
42847;BME280;28495;49.916;14.536;2023-02-14T01:27:31;98768.84;;;3.26;68.22
42847;BME280;28495;49.916;14.536;2023-02-14T01:32:52;98766.31;;;3.25;68.56
42847;BME280;28495;49.916;14.536;2023-02-14T01:38:13;98764.03;;;3.44;69.45
42847;BME280;28495;49.916;14.536;2023-02-14T01:43:54;98764.22;;;3.38;69.37
42847;BME280;28495;49.916;14.536;2023-02-14T01:49:23;98764.34;;;3.33;68.52
42847;BME280;28495;49.916;14.536;2023-02-14T01:54:50;98762.63;;;3.33;69.05
42847;BME280;28495;49.916;14.536;2023-02-14T02:00:13;98762.56;;;3.35;68.97
42847;BME280;28495;49.916;14.536;2023-02-14T02:05:58;98756.00;;;3.25;69.11
42847;BME280;28495;49.916;14.536;2023-02-14T02:11:21;98758.50;;;3.28;69.12
42847;BME280;28495;49.916;14.536;2023-02-14T02:40:02;98733.66;;;3.25;68.67
42847;BME280;28495;49.916;14.536;2023-02-14T02:57:27;98731.81;;;3.29;69.43
42847;BME280;28495;49.916;14.536;2023-02-14T03:02:52;98725.78;;;3.30;69.06
42847;BME280;28495;49.916;14.536;2023-02-14T03:08:33;98726.69;;;3.27;69.67
42847;BME280;28495;49.916;14.536;2023-02-14T03:14:55;98734.47;;;3.26;69.43
42847;BME280;28495;49.916;14.536;2023-02-14T03:25:45;98742.13;;;3.29;69.45
42847;BME280;28495;49.916;14.536;2023-02-14T03:37:07;98736.09;;;3.30;69.26
42847;BME280;28495;49.916;14.536;2023-02-14T03:42:35;98741.00;;;3.38;69.10
42847;BME280;28495;49.916;14.536;2023-02-14T03:48:00;98734.06;;;3.40;69.42
42847;BME280;28495;49.916;14.536;2023-02-14T03:53:27;98740.13;;;3.39;69.04
42847;BME280;28495;49.916;14.536;2023-02-14T03:58:53;98731.00;;;3.27;69.23
42847;BME280;28495;49.916;14.536;2023-02-14T04:04:19;98728.75;;;3.16;69.41
42847;BME280;28495;49.916;14.536;2023-02-14T04:09:40;98729.56;;;3.18;69.09
42847;BME280;28495;49.916;14.536;2023-02-14T04:15:03;98733.00;;;3.17;69.83
42847;BME280;28495;49.916;14.536;2023-02-14T04:20:25;98726.91;;;3.19;69.16
42847;BME280;28495;49.916;14.536;2023-02-14T04:25:46;98725.72;;;3.31;69.68
42847;BME280;28495;49.916;14.536;2023-02-14T04:31:07;98719.28;;;3.45;69.95
42847;BME280;28495;49.916;14.536;2023-02-14T04:36:29;98708.03;;;3.19;69.06
42847;BME280;28495;49.916;14.536;2023-02-14T04:41:50;98706.41;;;3.16;69.52
42847;BME280;28495;49.916;14.536;2023-02-14T04:47:11;98704.97;;;3.06;69.51
42847;BME280;28495;49.916;14.536;2023-02-14T04:52:32;98703.78;;;3.18;69.61
42847;BME280;28495;49.916;14.536;2023-02-14T04:57:52;98702.63;;;2.98;69.55
42847;BME280;28495;49.916;14.536;2023-02-14T05:03:13;98698.75;;;3.13;70.24
42847;BME280;28495;49.916;14.536;2023-02-14T05:08:34;98699.34;;;3.22;69.85
42847;BME280;28495;49.916;14.536;2023-02-14T05:13:55;98700.56;;;3.38;69.77
42847;BME280;28495;49.916;14.536;2023-02-14T05:19:16;98697.44;;;3.57;70.03
42847;BME280;28495;49.916;14.536;2023-02-14T05:24:37;98694.13;;;3.51;69.97
42847;BME280;28495;49.916;14.536;2023-02-14T05:29:58;98700.63;;;3.37;69.71
42847;BME280;28495;49.916;14.536;2023-02-14T05:35:18;98699.03;;;3.32;69.63
42847;BME280;28495;49.916;14.536;2023-02-14T05:40:42;98704.94;;;3.36;69.54
42847;BME280;28495;49.916;14.536;2023-02-14T05:46:03;98709.13;;;3.40;69.97
42847;BME280;28495;49.916;14.536;2023-02-14T05:51:24;98708.69;;;3.54;69.85
42847;BME280;28495;49.916;14.536;2023-02-14T05:56:44;98713.09;;;3.50;69.36
42847;BME280;28495;49.916;14.536;2023-02-14T06:02:05;98715.31;;;3.34;69.00
42847;BME280;28495;49.916;14.536;2023-02-14T06:07:26;98722.75;;;3.15;69.11
42847;BME280;28495;49.916;14.536;2023-02-14T06:12:48;98722.66;;;3.18;70.04
42847;BME280;28495;49.916;14.536;2023-02-14T06:18:09;98732.66;;;3.29;69.91
42847;BME280;28495;49.916;14.536;2023-02-14T06:23:30;98741.19;;;3.31;69.91
42847;BME280;28495;49.916;14.536;2023-02-14T06:28:54;98735.84;;;3.38;69.92
42847;BME280;28495;49.916;14.536;2023-02-14T06:34:15;98741.09;;;3.34;69.60
42847;BME280;28495;49.916;14.536;2023-02-14T06:39:36;98738.75;;;3.27;70.06
42847;BME280;28495;49.916;14.536;2023-02-14T06:44:57;98733.66;;;3.25;70.24
42847;BME280;28495;49.916;14.536;2023-02-14T06:50:17;98729.91;;;3.35;70.58
42847;BME280;28495;49.916;14.536;2023-02-14T06:55:38;98726.50;;;3.33;70.14
42847;BME280;28495;49.916;14.536;2023-02-14T07:00:59;98735.28;;;3.28;70.17
42847;BME280;28495;49.916;14.536;2023-02-14T07:06:21;98738.25;;;3.14;69.81
42847;BME280;28495;49.916;14.536;2023-02-14T07:11:42;98736.66;;;3.40;70.88
42847;BME280;28495;49.916;14.536;2023-02-14T07:17:03;98728.13;;;3.38;69.83
42847;BME280;28495;49.916;14.536;2023-02-14T07:22:24;98729.75;;;3.40;70.43
42847;BME280;28495;49.916;14.536;2023-02-14T07:27:45;98723.69;;;3.41;69.81
42847;BME280;28495;49.916;14.536;2023-02-14T07:33:05;98724.69;;;3.37;70.04
42847;BME280;28495;49.916;14.536;2023-02-14T07:38:27;98728.19;;;3.34;70.41
42847;BME280;28495;49.916;14.536;2023-02-14T07:43:49;98711.97;;;3.59;70.99
42847;BME280;28495;49.916;14.536;2023-02-14T07:49:10;98707.09;;;3.50;70.40
42847;BME280;28495;49.916;14.536;2023-02-14T07:54:31;98712.97;;;3.55;70.93
42847;BME280;28495;49.916;14.536;2023-02-14T07:59:53;98714.59;;;3.58;70.08
42847;BME280;28495;49.916;14.536;2023-02-14T08:05:13;98717.50;;;3.47;70.50
42847;BME280;28495;49.916;14.536;2023-02-14T08:10:34;98711.81;;;3.64;71.02
42847;BME280;28495;49.916;14.536;2023-02-14T08:15:55;98715.00;;;3.72;70.73
42847;BME280;28495;49.916;14.536;2023-02-14T08:21:28;98717.50;;;3.75;70.98
42847;BME280;28495;49.916;14.536;2023-02-14T08:26:49;98719.69;;;3.59;70.31
42847;BME280;28495;49.916;14.536;2023-02-14T08:32:10;98719.22;;;3.75;70.07
42847;BME280;28495;49.916;14.536;2023-02-14T08:37:30;98725.41;;;3.42;70.05
42847;BME280;28495;49.916;14.536;2023-02-14T08:42:51;98721.28;;;3.37;70.50
42847;BME280;28495;49.916;14.536;2023-02-14T08:48:12;98723.88;;;3.35;70.97
42847;BME280;28495;49.916;14.536;2023-02-14T08:53:33;98716.72;;;3.45;70.92
42847;BME280;28495;49.916;14.536;2023-02-14T08:58:54;98716.03;;;3.40;70.58
42847;BME280;28495;49.916;14.536;2023-02-14T09:04:15;98716.63;;;3.48;71.13
42847;BME280;28495;49.916;14.536;2023-02-14T09:09:36;98709.03;;;3.70;70.63
42847;BME280;28495;49.916;14.536;2023-02-14T09:14:57;98711.47;;;3.75;71.04
42847;BME280;28495;49.916;14.536;2023-02-14T09:20:18;98718.56;;;3.68;70.63
42847;BME280;28495;49.916;14.536;2023-02-14T09:25:39;98727.34;;;3.62;70.40
42847;BME280;28495;49.916;14.536;2023-02-14T09:31:17;98726.22;;;3.71;71.02
42847;BME280;28495;49.916;14.536;2023-02-14T09:36:38;98728.22;;;3.63;70.63
42847;BME280;28495;49.916;14.536;2023-02-14T09:53:25;98717.22;;;3.56;70.52
42847;BME280;28495;49.916;14.536;2023-02-14T10:04:38;98722.28;;;3.59;70.48
42847;BME280;28495;49.916;14.536;2023-02-14T10:10:28;98720.59;;;3.58;70.89
42847;BME280;28495;49.916;14.536;2023-02-14T10:16:00;98725.88;;;3.55;70.19
42847;BME280;28495;49.916;14.536;2023-02-14T10:21:31;98725.25;;;3.47;70.33
42847;BME280;28495;49.916;14.536;2023-02-14T10:27:00;98729.44;;;3.49;70.74
42847;BME280;28495;49.916;14.536;2023-02-14T10:32:45;98727.09;;;3.70;70.60
42847;BME280;28495;49.916;14.536;2023-02-14T10:43:36;98729.13;;;3.60;70.00
42847;BME280;28495;49.916;14.536;2023-02-14T10:54:39;98723.88;;;3.63;70.49
42847;BME280;28495;49.916;14.536;2023-02-14T11:00:04;98725.34;;;3.71;70.55
42847;BME280;28495;49.916;14.536;2023-02-14T11:05:35;98724.72;;;3.64;69.88
42847;BME280;28495;49.916;14.536;2023-02-14T11:11:14;98708.31;;;3.66;70.55
42847;BME280;28495;49.916;14.536;2023-02-14T11:16:36;98712.91;;;3.84;70.64
42847;BME280;28495;49.916;14.536;2023-02-14T11:21:58;98713.78;;;3.84;70.38
42847;BME280;28495;49.916;14.536;2023-02-14T11:27:19;98720.72;;;3.82;69.86
42847;BME280;28495;49.916;14.536;2023-02-14T11:32:41;98713.47;;;3.93;70.43
42847;BME280;28495;49.916;14.536;2023-02-14T11:38:03;98705.63;;;3.96;70.54
42847;BME280;28495;49.916;14.536;2023-02-14T11:43:44;98692.47;;;4.04;70.71
42847;BME280;28495;49.916;14.536;2023-02-14T11:49:21;98700.28;;;4.01;70.38
42847;BME280;28495;49.916;14.536;2023-02-14T11:54:46;98686.16;;;4.11;70.47
42847;BME280;28495;49.916;14.536;2023-02-14T12:00:18;98678.41;;;4.13;70.21
42847;BME280;28495;49.916;14.536;2023-02-14T12:05:46;98678.78;;;4.26;70.86
42847;BME280;28495;49.916;14.536;2023-02-14T12:11:20;98672.28;;;4.39;70.15
42847;BME280;28495;49.916;14.536;2023-02-14T12:16:55;98671.66;;;4.33;70.16
42847;BME280;28495;49.916;14.536;2023-02-14T12:22:20;98666.38;;;4.37;70.17
42847;BME280;28495;49.916;14.536;2023-02-14T12:27:48;98659.44;;;4.14;69.37
42847;BME280;28495;49.916;14.536;2023-02-14T12:33:19;98648.47;;;4.07;69.89
42847;BME280;28495;49.916;14.536;2023-02-14T12:39:04;98647.50;;;4.10;69.72
42847;BME280;28495;49.916;14.536;2023-02-14T12:44:49;98651.19;;;4.03;70.13
42847;BME280;28495;49.916;14.536;2023-02-14T12:50:30;98646.72;;;4.08;69.77
42847;BME280;28495;49.916;14.536;2023-02-14T13:01:56;98630.78;;;4.20;69.99
42847;BME280;28495;49.916;14.536;2023-02-14T13:12:57;98628.00;;;4.01;69.93
42847;BME280;28495;49.916;14.536;2023-02-14T13:18:52;98622.47;;;4.12;70.30
42847;BME280;28495;49.916;14.536;2023-02-14T13:24:22;98625.16;;;4.09;70.18
42847;BME280;28495;49.916;14.536;2023-02-14T13:29:47;98625.69;;;4.19;70.49
42847;BME280;28495;49.916;14.536;2023-02-14T13:35:15;98620.00;;;4.33;70.44
42847;BME280;28495;49.916;14.536;2023-02-14T13:40:37;98613.94;;;4.34;70.20
42847;BME280;28495;49.916;14.536;2023-02-14T13:45:58;98614.41;;;4.21;69.48
42847;BME280;28495;49.916;14.536;2023-02-14T13:51:19;98612.16;;;4.12;69.88
42847;BME280;28495;49.916;14.536;2023-02-14T13:56:40;98606.28;;;4.07;69.71
42847;BME280;28495;49.916;14.536;2023-02-14T14:24:40;98609.28;;;4.20;70.07
42847;BME280;28495;49.916;14.536;2023-02-14T14:30:50;98610.00;;;4.47;70.55
42847;BME280;28495;49.916;14.536;2023-02-14T14:36:06;98598.16;;;4.41;69.47
42847;BME280;28495;49.916;14.536;2023-02-14T14:41:28;98587.59;;;4.24;69.34
42847;BME280;28495;49.916;14.536;2023-02-14T14:46:52;98590.47;;;4.16;69.63
42847;BME280;28495;49.916;14.536;2023-02-14T14:57:58;98588.50;;;3.99;69.10
42847;BME280;28495;49.916;14.536;2023-02-14T15:03:22;98585.00;;;4.00;69.78
42847;BME280;28495;49.916;14.536;2023-02-14T15:08:45;98586.78;;;4.00;68.94
42847;BME280;28495;49.916;14.536;2023-02-14T15:14:19;98578.44;;;3.91;69.66
42847;BME280;28495;49.916;14.536;2023-02-14T15:19:43;98565.88;;;3.82;68.89
42847;BME280;28495;49.916;14.536;2023-02-14T15:25:33;98571.22;;;3.76;69.61
42847;BME280;28495;49.916;14.536;2023-02-14T15:30:57;98566.66;;;3.84;69.39
42847;BME280;28495;49.916;14.536;2023-02-14T15:36:19;98565.16;;;3.77;69.30
42847;BME280;28495;49.916;14.536;2023-02-14T15:41:46;98567.75;;;3.77;69.28
42847;BME280;28495;49.916;14.536;2023-02-14T15:47:12;98570.50;;;3.72;69.27
42847;BME280;28495;49.916;14.536;2023-02-14T15:52:34;98571.66;;;3.89;69.61
42847;BME280;28495;49.916;14.536;2023-02-14T15:58:00;98564.97;;;3.83;69.80
42847;BME280;28495;49.916;14.536;2023-02-14T16:03:25;98571.38;;;3.71;69.10
42847;BME280;28495;49.916;14.536;2023-02-14T16:08:54;98573.34;;;3.64;69.16
42847;BME280;28495;49.916;14.536;2023-02-14T16:19:42;98576.19;;;3.57;69.83
42847;BME280;28495;49.916;14.536;2023-02-14T16:25:04;98560.38;;;3.66;69.66
42847;BME280;28495;49.916;14.536;2023-02-14T16:30:26;98565.91;;;3.55;69.15
42847;BME280;28495;49.916;14.536;2023-02-14T16:35:48;98566.03;;;3.52;69.72
42847;BME280;28495;49.916;14.536;2023-02-14T16:41:25;98567.47;;;3.59;69.40
42847;BME280;28495;49.916;14.536;2023-02-14T16:46:47;98564.72;;;3.65;69.54
42847;BME280;28495;49.916;14.536;2023-02-14T16:52:22;98570.53;;;3.71;69.58
42847;BME280;28495;49.916;14.536;2023-02-14T16:57:45;98564.72;;;3.65;69.72
42847;BME280;28495;49.916;14.536;2023-02-14T17:03:07;98567.19;;;3.69;69.54
42847;BME280;28495;49.916;14.536;2023-02-14T17:08:31;98566.38;;;3.41;69.17
42847;BME280;28495;49.916;14.536;2023-02-14T17:13:53;98557.53;;;3.48;69.47
42847;BME280;28495;49.916;14.536;2023-02-14T17:19:14;98565.41;;;3.44;69.21
42847;BME280;28495;49.916;14.536;2023-02-14T17:24:36;98550.97;;;3.40;69.16
42847;BME280;28495;49.916;14.536;2023-02-14T17:29:57;98552.59;;;3.42;69.07
42847;BME280;28495;49.916;14.536;2023-02-14T17:35:18;98558.53;;;3.44;69.89
42847;BME280;28495;49.916;14.536;2023-02-14T17:40:39;98554.81;;;3.53;69.31
42847;BME280;28495;49.916;14.536;2023-02-14T17:46:03;98556.63;;;3.49;69.37
42847;BME280;28495;49.916;14.536;2023-02-14T17:51:24;98554.19;;;3.46;69.25
42847;BME280;28495;49.916;14.536;2023-02-14T17:56:45;98563.97;;;3.62;70.02
42847;BME280;28495;49.916;14.536;2023-02-14T18:02:05;98555.91;;;3.71;69.69
42847;BME280;28495;49.916;14.536;2023-02-14T18:07:26;98549.88;;;3.71;69.20
42847;BME280;28495;49.916;14.536;2023-02-14T18:12:47;98548.22;;;3.70;69.34
42847;BME280;28495;49.916;14.536;2023-02-14T18:18:08;98547.78;;;3.57;69.50
42847;BME280;28495;49.916;14.536;2023-02-14T18:23:31;98551.63;;;3.70;69.57
42847;BME280;28495;49.916;14.536;2023-02-14T18:28:52;98549.75;;;3.75;69.22
42847;BME280;28495;49.916;14.536;2023-02-14T18:34:14;98537.94;;;3.68;69.69
42847;BME280;28495;49.916;14.536;2023-02-14T18:39:35;98541.25;;;3.72;69.31
42847;BME280;28495;49.916;14.536;2023-02-14T18:44:55;98538.25;;;3.84;69.38
42847;BME280;28495;49.916;14.536;2023-02-14T18:50:16;98532.50;;;4.01;70.22
42847;BME280;28495;49.916;14.536;2023-02-14T18:55:38;98532.16;;;4.10;69.89
42847;BME280;28495;49.916;14.536;2023-02-14T19:01:27;98530.53;;;4.08;69.39
42847;BME280;28495;49.916;14.536;2023-02-14T19:06:48;98527.22;;;4.04;69.68
42847;BME280;28495;49.916;14.536;2023-02-14T19:12:10;98532.88;;;3.90;69.82
42847;BME280;28495;49.916;14.536;2023-02-14T19:17:31;98520.97;;;3.86;69.21
42847;BME280;28495;49.916;14.536;2023-02-14T19:22:55;98526.53;;;3.75;69.02
42847;BME280;28495;49.916;14.536;2023-02-14T19:28:16;98521.56;;;3.69;69.11
42847;BME280;28495;49.916;14.536;2023-02-14T19:33:41;98530.81;;;3.75;69.61
42847;BME280;28495;49.916;14.536;2023-02-14T19:39:04;98531.81;;;3.71;69.93
42847;BME280;28495;49.916;14.536;2023-02-14T19:44:26;98520.50;;;3.75;69.49
42847;BME280;28495;49.916;14.536;2023-02-14T19:49:49;98526.53;;;3.75;69.36
42847;BME280;28495;49.916;14.536;2023-02-14T19:55:19;98537.69;;;3.76;68.95
42847;BME280;28495;49.916;14.536;2023-02-14T20:00:41;98539.44;;;3.75;69.38
42847;BME280;28495;49.916;14.536;2023-02-14T20:06:02;98530.03;;;3.73;69.84
42847;BME280;28495;49.916;14.536;2023-02-14T20:16:57;98522.69;;;3.37;68.97
42847;BME280;28495;49.916;14.536;2023-02-14T20:22:18;98522.16;;;3.27;69.28
42847;BME280;28495;49.916;14.536;2023-02-14T20:27:39;98528.34;;;3.21;69.18
42847;BME280;28495;49.916;14.536;2023-02-14T20:33:00;98512.88;;;3.21;69.84
42847;BME280;28495;49.916;14.536;2023-02-14T20:38:21;98515.03;;;3.33;68.96
42847;BME280;28495;49.916;14.536;2023-02-14T20:43:42;98517.25;;;3.19;69.24
42847;BME280;28495;49.916;14.536;2023-02-14T20:49:03;98510.47;;;3.16;69.46
42847;BME280;28495;49.916;14.536;2023-02-14T20:54:26;98505.69;;;3.04;69.50
42847;BME280;28495;49.916;14.536;2023-02-14T20:59:47;98502.38;;;3.00;69.96
42847;BME280;28495;49.916;14.536;2023-02-14T21:05:08;98502.53;;;2.96;69.63
42847;BME280;28495;49.916;14.536;2023-02-14T21:10:29;98497.72;;;2.85;69.66
42847;BME280;28495;49.916;14.536;2023-02-14T21:15:49;98486.50;;;2.86;69.59
42847;BME280;28495;49.916;14.536;2023-02-14T21:21:13;98478.28;;;2.74;69.36
42847;BME280;28495;49.916;14.536;2023-02-14T21:26:35;98471.75;;;2.64;69.80
42847;BME280;28495;49.916;14.536;2023-02-14T21:31:56;98483.38;;;2.76;70.24
42847;BME280;28495;49.916;14.536;2023-02-14T21:37:17;98469.69;;;2.76;69.54
42847;BME280;28495;49.916;14.536;2023-02-14T21:42:38;98467.94;;;2.76;70.69
42847;BME280;28495;49.916;14.536;2023-02-14T21:47:59;98462.91;;;2.98;70.89
42847;BME280;28495;49.916;14.536;2023-02-14T21:53:38;98461.59;;;3.12;70.90
42847;BME280;28495;49.916;14.536;2023-02-14T21:58:59;98457.19;;;2.90;69.63
42847;BME280;28495;49.916;14.536;2023-02-14T22:04:20;98456.16;;;2.69;70.32
42847;BME280;28495;49.916;14.536;2023-02-14T22:09:43;98450.94;;;2.70;70.48
42847;BME280;28495;49.916;14.536;2023-02-14T22:15:04;98448.38;;;2.70;70.17
42847;BME280;28495;49.916;14.536;2023-02-14T22:20:25;98445.22;;;2.62;70.36
42847;BME280;28495;49.916;14.536;2023-02-14T22:25:46;98443.81;;;2.79;70.97
42847;BME280;28495;49.916;14.536;2023-02-14T22:31:07;98445.22;;;2.87;70.48
42847;BME280;28495;49.916;14.536;2023-02-14T22:36:28;98446.63;;;2.98;70.55
42847;BME280;28495;49.916;14.536;2023-02-14T22:41:49;98444.84;;;3.00;70.66
42847;BME280;28495;49.916;14.536;2023-02-14T22:47:10;98440.03;;;2.89;70.39
42847;BME280;28495;49.916;14.536;2023-02-14T22:52:30;98441.72;;;2.90;70.48
42847;BME280;28495;49.916;14.536;2023-02-14T22:57:53;98441.72;;;2.90;71.32
42847;BME280;28495;49.916;14.536;2023-02-14T23:03:14;98436.31;;;2.98;70.97
42847;BME280;28495;49.916;14.536;2023-02-14T23:08:38;98435.97;;;2.82;70.34
42847;BME280;28495;49.916;14.536;2023-02-14T23:13:59;98427.81;;;2.69;70.00
42847;BME280;28495;49.916;14.536;2023-02-14T23:19:39;98423.72;;;2.63;70.74
42847;BME280;28495;49.916;14.536;2023-02-14T23:25:18;98427.53;;;2.50;70.55
42847;BME280;28495;49.916;14.536;2023-02-14T23:30:39;98421.81;;;2.41;70.65
42847;BME280;28495;49.916;14.536;2023-02-14T23:36:03;98412.59;;;2.34;70.89
42847;BME280;28495;49.916;14.536;2023-02-14T23:41:24;98407.34;;;2.37;71.05
42847;BME280;28495;49.916;14.536;2023-02-14T23:47:05;98416.97;;;2.32;70.64
42847;BME280;28495;49.916;14.536;2023-02-14T23:52:27;98413.63;;;2.28;70.74
42847;BME280;28495;49.916;14.536;2023-02-14T23:57:48;98399.72;;;2.34;71.54
